sensor_id;sensor_type;location;lat;lon;timestamp;pressure;altitude;pressure_sealevel;temperature
74485;BMP280;62942;52.462;10.846;2023-06-22T00:00:47;101150;;;
74485;BMP280;62942;52.462;10.846;2023-06-22T00:01:57;101150;;;
74485;BMP280;62942;52.462;10.846;2023-06-22T00:03:07;101150;;;
74485;BMP280;62942;52.462;10.846;2023-06-22T00:04:17;101150;;;
74485;BMP280;62942;52.462;10.846;2023-06-22T00:05:27;101150;;;
74485;BMP280;62942;52.462;10.846;2023-06-22T00:06:27;101150;;;
74485;BMP280;62942;52.462;10.846;2023-06-22T00:07:37;101150;;;
74485;BMP280;62942;52.462;10.846;2023-06-22T00:08:47;101150;;;
74485;BMP280;62942;52.462;10.846;2023-06-22T00:09:57;101150;;;
74485;BMP280;62942;52.462;10.846;2023-06-22T00:11:07;101160;;;
74485;BMP280;62942;52.462;10.846;2023-06-22T00:12:17;101150;;;
74485;BMP280;62942;52.462;10.846;2023-06-22T00:13:27;101150;;;
74485;BMP280;62942;52.462;10.846;2023-06-22T00:14:27;101140;;;
74485;BMP280;62942;52.462;10.846;2023-06-22T00:15:37;101140;;;
74485;BMP280;62942;52.462;10.846;2023-06-22T00:16:37;101140;;;
74485;BMP280;62942;52.462;10.846;2023-06-22T00:17:47;101140;;;
74485;BMP280;62942;52.462;10.846;2023-06-22T00:18:47;101140;;;
74485;BMP280;62942;52.462;10.846;2023-06-22T00:19:47;101150;;;
74485;BMP280;62942;52.462;10.846;2023-06-22T00:20:57;101150;;;
74485;BMP280;62942;52.462;10.846;2023-06-22T00:21:57;101150;;;
74485;BMP280;62942;52.462;10.846;2023-06-22T00:23:07;101150;;;
74485;BMP280;62942;52.462;10.846;2023-06-22T00:24:07;101150;;;
74485;BMP280;62942;52.462;10.846;2023-06-22T00:25:17;101160;;;
74485;BMP280;62942;52.462;10.846;2023-06-22T00:26:27;101150;;;
74485;BMP280;62942;52.462;10.846;2023-06-22T00:27:27;101150;;;
74485;BMP280;62942;52.462;10.846;2023-06-22T00:28:37;101150;;;
74485;BMP280;62942;52.462;10.846;2023-06-22T00:29:47;101150;;;
74485;BMP280;62942;52.462;10.846;2023-06-22T00:30:48;101150;;;
74485;BMP280;62942;52.462;10.846;2023-06-22T00:31:47;101150;;;
74485;BMP280;62942;52.462;10.846;2023-06-22T00:32:47;101150;;;
74485;BMP280;62942;52.462;10.846;2023-06-22T00:33:57;101150;;;
74485;BMP280;62942;52.462;10.846;2023-06-22T00:34:57;101150;;;
74485;BMP280;62942;52.462;10.846;2023-06-22T00:36:07;101150;;;
74485;BMP280;62942;52.462;10.846;2023-06-22T00:37:07;101150;;;
74485;BMP280;62942;52.462;10.846;2023-06-22T00:38:17;101160;;;
74485;BMP280;62942;52.462;10.846;2023-06-22T00:39:27;101150;;;
74485;BMP280;62942;52.462;10.846;2023-06-22T00:40:27;101150;;;
74485;BMP280;62942;52.462;10.846;2023-06-22T00:41:27;101150;;;
74485;BMP280;62942;52.462;10.846;2023-06-22T00:42:37;101150;;;
74485;BMP280;62942;52.462;10.846;2023-06-22T00:43:47;101150;;;
74485;BMP280;62942;52.462;10.846;2023-06-22T00:44:47;101150;;;
74485;BMP280;62942;52.462;10.846;2023-06-22T00:45:57;101150;;;
74485;BMP280;62942;52.462;10.846;2023-06-22T00:47:07;101150;;;
74485;BMP280;62942;52.462;10.846;2023-06-22T00:48:17;101150;;;
74485;BMP280;62942;52.462;10.846;2023-06-22T00:49:27;101160;;;
74485;BMP280;62942;52.462;10.846;2023-06-22T00:50:37;101160;;;
74485;BMP280;62942;52.462;10.846;2023-06-22T00:51:37;101150;;;
74485;BMP280;62942;52.462;10.846;2023-06-22T00:52:37;101160;;;
74485;BMP280;62942;52.462;10.846;2023-06-22T00:53:47;101160;;;
74485;BMP280;62942;52.462;10.846;2023-06-22T00:54:57;101160;;;
74485;BMP280;62942;52.462;10.846;2023-06-22T00:56:07;101160;;;
74485;BMP280;62942;52.462;10.846;2023-06-22T00:57:17;101160;;;
74485;BMP280;62942;52.462;10.846;2023-06-22T00:58:17;101160;;;
74485;BMP280;62942;52.462;10.846;2023-06-22T00:59:27;101160;;;
74485;BMP280;62942;52.462;10.846;2023-06-22T01:00:37;101160;;;
74485;BMP280;62942;52.462;10.846;2023-06-22T01:01:37;101160;;;
74485;BMP280;62942;52.462;10.846;2023-06-22T01:02:37;101160;;;
74485;BMP280;62942;52.462;10.846;2023-06-22T01:03:47;101160;;;
74485;BMP280;62942;52.462;10.846;2023-06-22T01:04:57;101160;;;
74485;BMP280;62942;52.462;10.846;2023-06-22T01:06:07;101160;;;
74485;BMP280;62942;52.462;10.846;2023-06-22T01:07:19;101160;;;
74485;BMP280;62942;52.462;10.846;2023-06-22T01:08:20;101160;;;
74485;BMP280;62942;52.462;10.846;2023-06-22T01:09:19;101160;;;
74485;BMP280;62942;52.462;10.846;2023-06-22T01:10:29;101160;;;
74485;BMP280;62942;52.462;10.846;2023-06-22T01:11:28;101160;;;
74485;BMP280;62942;52.462;10.846;2023-06-22T01:12:38;101160;;;
74485;BMP280;62942;52.462;10.846;2023-06-22T01:13:49;101160;;;
74485;BMP280;62942;52.462;10.846;2023-06-22T01:14:47;101160;;;
74485;BMP280;62942;52.462;10.846;2023-06-22T01:15:59;101160;;;
74485;BMP280;62942;52.462;10.846;2023-06-22T01:16:57;101160;;;
74485;BMP280;62942;52.462;10.846;2023-06-22T01:17:57;101160;;;
74485;BMP280;62942;52.462;10.846;2023-06-22T01:19:09;101160;;;
74485;BMP280;62942;52.462;10.846;2023-06-22T01:20:17;101160;;;
74485;BMP280;62942;52.462;10.846;2023-06-22T01:21:17;101160;;;
74485;BMP280;62942;52.462;10.846;2023-06-22T01:22:17;101160;;;
74485;BMP280;62942;52.462;10.846;2023-06-22T01:23:28;101160;;;
74485;BMP280;62942;52.462;10.846;2023-06-22T01:24:27;101150;;;
74485;BMP280;62942;52.462;10.846;2023-06-22T01:25:40;101150;;;
74485;BMP280;62942;52.462;10.846;2023-06-22T01:26:37;101150;;;
74485;BMP280;62942;52.462;10.846;2023-06-22T01:27:47;101140;;;
74485;BMP280;62942;52.462;10.846;2023-06-22T01:28:57;101140;;;
74485;BMP280;62942;52.462;10.846;2023-06-22T01:29:57;101140;;;
74485;BMP280;62942;52.462;10.846;2023-06-22T01:31:07;101130;;;
74485;BMP280;62942;52.462;10.846;2023-06-22T01:32:06;101130;;;
74485;BMP280;62942;52.462;10.846;2023-06-22T01:33:07;101130;;;
74485;BMP280;62942;52.462;10.846;2023-06-22T01:34:17;101110;;;
74485;BMP280;62942;52.462;10.846;2023-06-22T01:35:27;101110;;;
74485;BMP280;62942;52.462;10.846;2023-06-22T01:36:27;101130;;;
74485;BMP280;62942;52.462;10.846;2023-06-22T01:37:27;101130;;;
74485;BMP280;62942;52.462;10.846;2023-06-22T01:38:37;101120;;;
74485;BMP280;62942;52.462;10.846;2023-06-22T01:39:37;101120;;;
74485;BMP280;62942;52.462;10.846;2023-06-22T01:40:47;101130;;;
74485;BMP280;62942;52.462;10.846;2023-06-22T01:41:56;101130;;;
74485;BMP280;62942;52.462;10.846;2023-06-22T01:43:07;101130;;;
74485;BMP280;62942;52.462;10.846;2023-06-22T01:44:16;101130;;;
74485;BMP280;62942;52.462;10.846;2023-06-22T01:45:27;101130;;;
74485;BMP280;62942;52.462;10.846;2023-06-22T01:46:26;101130;;;
74485;BMP280;62942;52.462;10.846;2023-06-22T01:47:26;101130;;;
74485;BMP280;62942;52.462;10.846;2023-06-22T01:48:26;101130;;;
74485;BMP280;62942;52.462;10.846;2023-06-22T01:49:36;101130;;;
74485;BMP280;62942;52.462;10.846;2023-06-22T01:50:46;101130;;;
74485;BMP280;62942;52.462;10.846;2023-06-22T01:51:56;101130;;;
74485;BMP280;62942;52.462;10.846;2023-06-22T01:52:56;101130;;;
74485;BMP280;62942;52.462;10.846;2023-06-22T01:54:06;101130;;;
74485;BMP280;62942;52.462;10.846;2023-06-22T01:55:16;101120;;;
74485;BMP280;62942;52.462;10.846;2023-06-22T01:56:26;101130;;;
74485;BMP280;62942;52.462;10.846;2023-06-22T01:57:27;101130;;;
74485;BMP280;62942;52.462;10.846;2023-06-22T01:58:37;101120;;;
74485;BMP280;62942;52.462;10.846;2023-06-22T01:59:37;101120;;;
74485;BMP280;62942;52.462;10.846;2023-06-22T02:00:48;101110;;;
74485;BMP280;62942;52.462;10.846;2023-06-22T02:01:52;101120;;;
74485;BMP280;62942;52.462;10.846;2023-06-22T02:02:48;101110;;;
74485;BMP280;62942;52.462;10.846;2023-06-22T02:03:48;101110;;;
74485;BMP280;62942;52.462;10.846;2023-06-22T02:04:47;101120;;;
74485;BMP280;62942;52.462;10.846;2023-06-22T02:05:58;101130;;;
74485;BMP280;62942;52.462;10.846;2023-06-22T02:06:58;101130;;;
74485;BMP280;62942;52.462;10.846;2023-06-22T02:08:07;101130;;;
74485;BMP280;62942;52.462;10.846;2023-06-22T02:09:07;101130;;;
74485;BMP280;62942;52.462;10.846;2023-06-22T02:10:16;101140;;;
74485;BMP280;62942;52.462;10.846;2023-06-22T02:11:46;101140;;;
74485;BMP280;62942;52.462;10.846;2023-06-22T02:12:46;101150;;;
74485;BMP280;62942;52.462;10.846;2023-06-22T02:13:46;101140;;;
74485;BMP280;62942;52.462;10.846;2023-06-22T02:14:56;101150;;;
74485;BMP280;62942;52.462;10.846;2023-06-22T02:16:06;101150;;;
74485;BMP280;62942;52.462;10.846;2023-06-22T02:17:07;101150;;;
74485;BMP280;62942;52.462;10.846;2023-06-22T02:18:16;101150;;;
74485;BMP280;62942;52.462;10.846;2023-06-22T02:19:16;101150;;;
74485;BMP280;62942;52.462;10.846;2023-06-22T02:20:26;101150;;;
74485;BMP280;62942;52.462;10.846;2023-06-22T02:21:36;101150;;;
74485;BMP280;62942;52.462;10.846;2023-06-22T02:22:46;101140;;;
74485;BMP280;62942;52.462;10.846;2023-06-22T02:23:56;101140;;;
74485;BMP280;62942;52.462;10.846;2023-06-22T02:24:56;101130;;;
74485;BMP280;62942;52.462;10.846;2023-06-22T02:25:56;101140;;;
74485;BMP280;62942;52.462;10.846;2023-06-22T02:26:56;101140;;;
74485;BMP280;62942;52.462;10.846;2023-06-22T02:28:06;101140;;;
74485;BMP280;62942;52.462;10.846;2023-06-22T02:29:16;101140;;;
74485;BMP280;62942;52.462;10.846;2023-06-22T02:30:16;101130;;;
74485;BMP280;62942;52.462;10.846;2023-06-22T02:31:26;101120;;;
74485;BMP280;62942;52.462;10.846;2023-06-22T02:32:36;101120;;;
74485;BMP280;62942;52.462;10.846;2023-06-22T02:33:46;101140;;;
74485;BMP280;62942;52.462;10.846;2023-06-22T02:34:46;101130;;;
74485;BMP280;62942;52.462;10.846;2023-06-22T02:35:46;101140;;;
74485;BMP280;62942;52.462;10.846;2023-06-22T02:36:56;101140;;;
74485;BMP280;62942;52.462;10.846;2023-06-22T02:38:06;101130;;;
74485;BMP280;62942;52.462;10.846;2023-06-22T02:39:06;101140;;;
74485;BMP280;62942;52.462;10.846;2023-06-22T02:40:07;101140;;;
74485;BMP280;62942;52.462;10.846;2023-06-22T02:41:16;101140;;;
74485;BMP280;62942;52.462;10.846;2023-06-22T02:42:26;101140;;;
74485;BMP280;62942;52.462;10.846;2023-06-22T02:43:26;101140;;;
74485;BMP280;62942;52.462;10.846;2023-06-22T02:44:26;101140;;;
74485;BMP280;62942;52.462;10.846;2023-06-22T02:45:36;101140;;;
74485;BMP280;62942;52.462;10.846;2023-06-22T02:46:36;101140;;;
74485;BMP280;62942;52.462;10.846;2023-06-22T02:47:46;101130;;;
74485;BMP280;62942;52.462;10.846;2023-06-22T02:48:56;101130;;;
74485;BMP280;62942;52.462;10.846;2023-06-22T02:50:07;101130;;;
74485;BMP280;62942;52.462;10.846;2023-06-22T02:51:16;101130;;;
74485;BMP280;62942;52.462;10.846;2023-06-22T02:52:16;101140;;;
74485;BMP280;62942;52.462;10.846;2023-06-22T02:53:26;101140;;;
74485;BMP280;62942;52.462;10.846;2023-06-22T02:54:36;101140;;;
74485;BMP280;62942;52.462;10.846;2023-06-22T02:55:36;101140;;;
74485;BMP280;62942;52.462;10.846;2023-06-22T02:56:46;101140;;;
74485;BMP280;62942;52.462;10.846;2023-06-22T02:57:46;101140;;;
74485;BMP280;62942;52.462;10.846;2023-06-22T02:58:46;101140;;;
74485;BMP280;62942;52.462;10.846;2023-06-22T02:59:56;101140;;;
74485;BMP280;62942;52.462;10.846;2023-06-22T03:01:06;101140;;;
74485;BMP280;62942;52.462;10.846;2023-06-22T03:02:06;101140;;;
74485;BMP280;62942;52.462;10.846;2023-06-22T03:03:06;101140;;;
74485;BMP280;62942;52.462;10.846;2023-06-22T03:04:17;101140;;;
74485;BMP280;62942;52.462;10.846;2023-06-22T03:05:26;101140;;;
74485;BMP280;62942;52.462;10.846;2023-06-22T03:06:26;101150;;;
74485;BMP280;62942;52.462;10.846;2023-06-22T03:07:36;101150;;;
74485;BMP280;62942;52.462;10.846;2023-06-22T03:08:46;101150;;;
74485;BMP280;62942;52.462;10.846;2023-06-22T03:09:56;101150;;;
74485;BMP280;62942;52.462;10.846;2023-06-22T03:10:56;101150;;;
74485;BMP280;62942;52.462;10.846;2023-06-22T03:12:07;101160;;;
74485;BMP280;62942;52.462;10.846;2023-06-22T03:13:16;101170;;;
74485;BMP280;62942;52.462;10.846;2023-06-22T03:14:16;101160;;;
74485;BMP280;62942;52.462;10.846;2023-06-22T03:15:16;101170;;;
74485;BMP280;62942;52.462;10.846;2023-06-22T03:16:26;101170;;;
74485;BMP280;62942;52.462;10.846;2023-06-22T03:17:37;101170;;;
74485;BMP280;62942;52.462;10.846;2023-06-22T03:18:46;101170;;;
74485;BMP280;62942;52.462;10.846;2023-06-22T03:19:46;101170;;;
74485;BMP280;62942;52.462;10.846;2023-06-22T03:20:46;101170;;;
74485;BMP280;62942;52.462;10.846;2023-06-22T03:21:56;101180;;;
74485;BMP280;62942;52.462;10.846;2023-06-22T03:22:56;101170;;;
74485;BMP280;62942;52.462;10.846;2023-06-22T03:24:06;101180;;;
74485;BMP280;62942;52.462;10.846;2023-06-22T03:25:16;101180;;;
74485;BMP280;62942;52.462;10.846;2023-06-22T03:26:17;101190;;;
74485;BMP280;62942;52.462;10.846;2023-06-22T03:27:26;101180;;;
74485;BMP280;62942;52.462;10.846;2023-06-22T03:28:37;101180;;;
74485;BMP280;62942;52.462;10.846;2023-06-22T03:29:36;101190;;;
74485;BMP280;62942;52.462;10.846;2023-06-22T03:30:37;101190;;;
74485;BMP280;62942;52.462;10.846;2023-06-22T03:31:36;101180;;;
74485;BMP280;62942;52.462;10.846;2023-06-22T03:32:36;101180;;;
74485;BMP280;62942;52.462;10.846;2023-06-22T03:33:36;101180;;;
74485;BMP280;62942;52.462;10.846;2023-06-22T03:34:36;101180;;;
74485;BMP280;62942;52.462;10.846;2023-06-22T03:35:37;101190;;;
74485;BMP280;62942;52.462;10.846;2023-06-22T03:36:46;101190;;;
74485;BMP280;62942;52.462;10.846;2023-06-22T03:37:56;101190;;;
74485;BMP280;62942;52.462;10.846;2023-06-22T03:38:57;101190;;;
74485;BMP280;62942;52.462;10.846;2023-06-22T03:39:56;101190;;;
74485;BMP280;62942;52.462;10.846;2023-06-22T03:41:06;101200;;;
74485;BMP280;62942;52.462;10.846;2023-06-22T03:42:06;101190;;;
74485;BMP280;62942;52.462;10.846;2023-06-22T03:43:16;101200;;;
74485;BMP280;62942;52.462;10.846;2023-06-22T03:44:16;101200;;;
74485;BMP280;62942;52.462;10.846;2023-06-22T03:45:26;101190;;;
74485;BMP280;62942;52.462;10.846;2023-06-22T03:46:26;101190;;;
74485;BMP280;62942;52.462;10.846;2023-06-22T03:47:36;101200;;;
74485;BMP280;62942;52.462;10.846;2023-06-22T03:48:37;101200;;;
74485;BMP280;62942;52.462;10.846;2023-06-22T03:49:46;101200;;;
74485;BMP280;62942;52.462;10.846;2023-06-22T03:50:46;101200;;;
74485;BMP280;62942;52.462;10.846;2023-06-22T03:51:46;101210;;;
74485;BMP280;62942;52.462;10.846;2023-06-22T03:52:46;101200;;;
74485;BMP280;62942;52.462;10.846;2023-06-22T03:53:46;101210;;;
74485;BMP280;62942;52.462;10.846;2023-06-22T03:54:56;101210;;;
74485;BMP280;62942;52.462;10.846;2023-06-22T03:55:56;101210;;;
74485;BMP280;62942;52.462;10.846;2023-06-22T03:57:06;101210;;;
74485;BMP280;62942;52.462;10.846;2023-06-22T03:58:16;101210;;;
74485;BMP280;62942;52.462;10.846;2023-06-22T03:59:16;101200;;;
74485;BMP280;62942;52.462;10.846;2023-06-22T04:00:26;101210;;;
74485;BMP280;62942;52.462;10.846;2023-06-22T04:01:36;101200;;;
74485;BMP280;62942;52.462;10.846;2023-06-22T04:02:46;101200;;;
74485;BMP280;62942;52.462;10.846;2023-06-22T04:03:56;101200;;;
74485;BMP280;62942;52.462;10.846;2023-06-22T04:04:56;101200;;;
74485;BMP280;62942;52.462;10.846;2023-06-22T04:05:56;101200;;;
74485;BMP280;62942;52.462;10.846;2023-06-22T04:07:06;101200;;;
74485;BMP280;62942;52.462;10.846;2023-06-22T04:08:06;101190;;;
74485;BMP280;62942;52.462;10.846;2023-06-22T04:09:06;101190;;;
74485;BMP280;62942;52.462;10.846;2023-06-22T04:10:16;101190;;;
74485;BMP280;62942;52.462;10.846;2023-06-22T04:11:16;101200;;;
74485;BMP280;62942;52.462;10.846;2023-06-22T04:12:26;101200;;;
74485;BMP280;62942;52.462;10.846;2023-06-22T04:13:36;101200;;;
74485;BMP280;62942;52.462;10.846;2023-06-22T04:14:36;101200;;;
74485;BMP280;62942;52.462;10.846;2023-06-22T04:15:36;101200;;;
74485;BMP280;62942;52.462;10.846;2023-06-22T04:16:46;101200;;;
74485;BMP280;62942;52.462;10.846;2023-06-22T04:17:46;101200;;;
74485;BMP280;62942;52.462;10.846;2023-06-22T04:18:46;101190;;;
74485;BMP280;62942;52.462;10.846;2023-06-22T04:19:46;101190;;;
74485;BMP280;62942;52.462;10.846;2023-06-22T04:20:56;101190;;;
74485;BMP280;62942;52.462;10.846;2023-06-22T04:21:56;101200;;;
74485;BMP280;62942;52.462;10.846;2023-06-22T04:23:06;101200;;;
74485;BMP280;62942;52.462;10.846;2023-06-22T04:24:16;101190;;;
74485;BMP280;62942;52.462;10.846;2023-06-22T04:25:26;101190;;;
74485;BMP280;62942;52.462;10.846;2023-06-22T04:26:26;101190;;;
74485;BMP280;62942;52.462;10.846;2023-06-22T04:27:36;101190;;;
74485;BMP280;62942;52.462;10.846;2023-06-22T04:28:46;101190;;;
74485;BMP280;62942;52.462;10.846;2023-06-22T04:29:56;101190;;;
74485;BMP280;62942;52.462;10.846;2023-06-22T04:31:06;101170;;;
74485;BMP280;62942;52.462;10.846;2023-06-22T04:32:06;101170;;;
74485;BMP280;62942;52.462;10.846;2023-06-22T04:33:17;101180;;;
74485;BMP280;62942;52.462;10.846;2023-06-22T04:34:26;101170;;;
74485;BMP280;62942;52.462;10.846;2023-06-22T04:35:36;101170;;;
74485;BMP280;62942;52.462;10.846;2023-06-22T04:36:46;101170;;;
74485;BMP280;62942;52.462;10.846;2023-06-22T04:37:57;101170;;;
74485;BMP280;62942;52.462;10.846;2023-06-22T04:38:56;101170;;;
74485;BMP280;62942;52.462;10.846;2023-06-22T04:40:06;101170;;;
74485;BMP280;62942;52.462;10.846;2023-06-22T04:41:16;101170;;;
74485;BMP280;62942;52.462;10.846;2023-06-22T04:42:26;101170;;;
74485;BMP280;62942;52.462;10.846;2023-06-22T04:43:36;101160;;;
74485;BMP280;62942;52.462;10.846;2023-06-22T04:44:36;101180;;;
74485;BMP280;62942;52.462;10.846;2023-06-22T04:45:46;101180;;;
74485;BMP280;62942;52.462;10.846;2023-06-22T04:46:46;101180;;;
74485;BMP280;62942;52.462;10.846;2023-06-22T04:47:46;101180;;;
74485;BMP280;62942;52.462;10.846;2023-06-22T04:48:56;101170;;;
74485;BMP280;62942;52.462;10.846;2023-06-22T04:50:06;101170;;;
74485;BMP280;62942;52.462;10.846;2023-06-22T04:51:16;101170;;;
74485;BMP280;62942;52.462;10.846;2023-06-22T04:52:26;101170;;;
74485;BMP280;62942;52.462;10.846;2023-06-22T04:53:36;101170;;;
74485;BMP280;62942;52.462;10.846;2023-06-22T04:54:46;101180;;;
74485;BMP280;62942;52.462;10.846;2023-06-22T04:55:46;101170;;;
74485;BMP280;62942;52.462;10.846;2023-06-22T04:56:56;101170;;;
74485;BMP280;62942;52.462;10.846;2023-06-22T04:57:56;101170;;;
74485;BMP280;62942;52.462;10.846;2023-06-22T04:59:06;101170;;;
74485;BMP280;62942;52.462;10.846;2023-06-22T05:00:17;101180;;;
74485;BMP280;62942;52.462;10.846;2023-06-22T05:01:26;101180;;;
74485;BMP280;62942;52.462;10.846;2023-06-22T05:02:36;101180;;;
74485;BMP280;62942;52.462;10.846;2023-06-22T05:03:46;101180;;;
74485;BMP280;62942;52.462;10.846;2023-06-22T05:04:46;101170;;;
74485;BMP280;62942;52.462;10.846;2023-06-22T05:05:46;101170;;;
74485;BMP280;62942;52.462;10.846;2023-06-22T05:06:56;101180;;;
74485;BMP280;62942;52.462;10.846;2023-06-22T05:07:56;101180;;;
74485;BMP280;62942;52.462;10.846;2023-06-22T05:08:56;101170;;;
74485;BMP280;62942;52.462;10.846;2023-06-22T05:10:06;101170;;;
74485;BMP280;62942;52.462;10.846;2023-06-22T05:11:06;101170;;;
74485;BMP280;62942;52.462;10.846;2023-06-22T05:12:16;101170;;;
74485;BMP280;62942;52.462;10.846;2023-06-22T05:13:16;101170;;;
74485;BMP280;62942;52.462;10.846;2023-06-22T05:14:26;101170;;;
74485;BMP280;62942;52.462;10.846;2023-06-22T05:15:26;101170;;;
74485;BMP280;62942;52.462;10.846;2023-06-22T05:16:26;101160;;;
74485;BMP280;62942;52.462;10.846;2023-06-22T05:17:26;101170;;;
74485;BMP280;62942;52.462;10.846;2023-06-22T05:18:36;101160;;;
74485;BMP280;62942;52.462;10.846;2023-06-22T05:19:36;101160;;;
74485;BMP280;62942;52.462;10.846;2023-06-22T05:20:46;101160;;;
74485;BMP280;62942;52.462;10.846;2023-06-22T05:21:56;101160;;;
74485;BMP280;62942;52.462;10.846;2023-06-22T05:23:06;101160;;;
74485;BMP280;62942;52.462;10.846;2023-06-22T05:24:06;101170;;;
74485;BMP280;62942;52.462;10.846;2023-06-22T05:25:16;101160;;;
74485;BMP280;62942;52.462;10.846;2023-06-22T05:26:26;101170;;;
74485;BMP280;62942;52.462;10.846;2023-06-22T05:27:36;101170;;;
74485;BMP280;62942;52.462;10.846;2023-06-22T05:28:36;101170;;;
74485;BMP280;62942;52.462;10.846;2023-06-22T05:29:36;101170;;;
74485;BMP280;62942;52.462;10.846;2023-06-22T05:30:46;101170;;;
74485;BMP280;62942;52.462;10.846;2023-06-22T05:31:56;101170;;;
74485;BMP280;62942;52.462;10.846;2023-06-22T05:33:06;101170;;;
74485;BMP280;62942;52.462;10.846;2023-06-22T05:34:16;101170;;;
74485;BMP280;62942;52.462;10.846;2023-06-22T05:35:26;101170;;;
74485;BMP280;62942;52.462;10.846;2023-06-22T05:36:36;101160;;;
74485;BMP280;62942;52.462;10.846;2023-06-22T05:37:36;101170;;;
74485;BMP280;62942;52.462;10.846;2023-06-22T05:38:46;101160;;;
74485;BMP280;62942;52.462;10.846;2023-06-22T05:39:56;101160;;;
74485;BMP280;62942;52.462;10.846;2023-06-22T05:41:06;101160;;;
74485;BMP280;62942;52.462;10.846;2023-06-22T05:42:07;101160;;;
74485;BMP280;62942;52.462;10.846;2023-06-22T05:43:06;101160;;;
74485;BMP280;62942;52.462;10.846;2023-06-22T05:44:16;101170;;;
74485;BMP280;62942;52.462;10.846;2023-06-22T05:45:26;101160;;;
74485;BMP280;62942;52.462;10.846;2023-06-22T05:46:36;101170;;;
74485;BMP280;62942;52.462;10.846;2023-06-22T05:47:46;101170;;;
74485;BMP280;62942;52.462;10.846;2023-06-22T05:48:56;101170;;;
74485;BMP280;62942;52.462;10.846;2023-06-22T05:50:06;101170;;;
74485;BMP280;62942;52.462;10.846;2023-06-22T05:51:16;101180;;;
74485;BMP280;62942;52.462;10.846;2023-06-22T05:52:26;101180;;;
74485;BMP280;62942;52.462;10.846;2023-06-22T05:53:26;101180;;;
74485;BMP280;62942;52.462;10.846;2023-06-22T05:54:36;101180;;;
74485;BMP280;62942;52.462;10.846;2023-06-22T05:55:36;101170;;;
74485;BMP280;62942;52.462;10.846;2023-06-22T05:56:46;101170;;;
74485;BMP280;62942;52.462;10.846;2023-06-22T05:57:56;101160;;;
74485;BMP280;62942;52.462;10.846;2023-06-22T05:58:56;101160;;;
74485;BMP280;62942;52.462;10.846;2023-06-22T06:00:06;101160;;;
74485;BMP280;62942;52.462;10.846;2023-06-22T06:01:16;101160;;;
74485;BMP280;62942;52.462;10.846;2023-06-22T06:02:26;101150;;;
74485;BMP280;62942;52.462;10.846;2023-06-22T06:03:26;101150;;;
74485;BMP280;62942;52.462;10.846;2023-06-22T06:04:36;101150;;;
74485;BMP280;62942;52.462;10.846;2023-06-22T06:05:46;101150;;;
74485;BMP280;62942;52.462;10.846;2023-06-22T06:06:46;101150;;;
74485;BMP280;62942;52.462;10.846;2023-06-22T06:07:46;101140;;;
74485;BMP280;62942;52.462;10.846;2023-06-22T06:08:56;101140;;;
74485;BMP280;62942;52.462;10.846;2023-06-22T06:10:06;101140;;;
74485;BMP280;62942;52.462;10.846;2023-06-22T06:11:16;101150;;;
74485;BMP280;62942;52.462;10.846;2023-06-22T06:12:16;101140;;;
74485;BMP280;62942;52.462;10.846;2023-06-22T06:13:26;101130;;;
74485;BMP280;62942;52.462;10.846;2023-06-22T06:14:26;101140;;;
74485;BMP280;62942;52.462;10.846;2023-06-22T06:15:37;101140;;;
74485;BMP280;62942;52.462;10.846;2023-06-22T06:16:46;101140;;;
74485;BMP280;62942;52.462;10.846;2023-06-22T06:17:56;101140;;;
74485;BMP280;62942;52.462;10.846;2023-06-22T06:18:56;101140;;;
74485;BMP280;62942;52.462;10.846;2023-06-22T06:20:06;101140;;;
74485;BMP280;62942;52.462;10.846;2023-06-22T06:21:16;101150;;;
74485;BMP280;62942;52.462;10.846;2023-06-22T06:22:26;101150;;;
74485;BMP280;62942;52.462;10.846;2023-06-22T06:23:36;101140;;;
74485;BMP280;62942;52.462;10.846;2023-06-22T06:24:36;101150;;;
74485;BMP280;62942;52.462;10.846;2023-06-22T06:25:46;101140;;;
74485;BMP280;62942;52.462;10.846;2023-06-22T06:26:46;101140;;;
74485;BMP280;62942;52.462;10.846;2023-06-22T06:27:46;101140;;;
74485;BMP280;62942;52.462;10.846;2023-06-22T06:28:46;101140;;;
74485;BMP280;62942;52.462;10.846;2023-06-22T06:29:56;101130;;;
74485;BMP280;62942;52.462;10.846;2023-06-22T06:30:56;101130;;;
74485;BMP280;62942;52.462;10.846;2023-06-22T06:31:56;101140;;;
74485;BMP280;62942;52.462;10.846;2023-06-22T06:32:56;101140;;;
74485;BMP280;62942;52.462;10.846;2023-06-22T06:33:56;101140;;;
74485;BMP280;62942;52.462;10.846;2023-06-22T06:35:06;101140;;;
74485;BMP280;62942;52.462;10.846;2023-06-22T06:36:06;101140;;;
74485;BMP280;62942;52.462;10.846;2023-06-22T06:37:06;101140;;;
74485;BMP280;62942;52.462;10.846;2023-06-22T06:38:16;101140;;;
74485;BMP280;62942;52.462;10.846;2023-06-22T06:39:16;101140;;;
74485;BMP280;62942;52.462;10.846;2023-06-22T06:40:26;101140;;;
74485;BMP280;62942;52.462;10.846;2023-06-22T06:41:36;101150;;;
74485;BMP280;62942;52.462;10.846;2023-06-22T06:42:47;101140;;;
74485;BMP280;62942;52.462;10.846;2023-06-22T06:43:56;101140;;;
74485;BMP280;62942;52.462;10.846;2023-06-22T06:44:56;101140;;;
74485;BMP280;62942;52.462;10.846;2023-06-22T06:46:06;101140;;;
74485;BMP280;62942;52.462;10.846;2023-06-22T06:47:06;101140;;;
74485;BMP280;62942;52.462;10.846;2023-06-22T06:48:06;101140;;;
74485;BMP280;62942;52.462;10.846;2023-06-22T06:49:16;101140;;;
74485;BMP280;62942;52.462;10.846;2023-06-22T06:50:26;101130;;;
74485;BMP280;62942;52.462;10.846;2023-06-22T06:51:26;101140;;;
74485;BMP280;62942;52.462;10.846;2023-06-22T06:52:26;101140;;;
74485;BMP280;62942;52.462;10.846;2023-06-22T06:53:37;101140;;;
74485;BMP280;62942;52.462;10.846;2023-06-22T06:54:46;101140;;;
74485;BMP280;62942;52.462;10.846;2023-06-22T06:55:46;101140;;;